createdAt,value
2019-02-18T00:01:49.327Z,166.60
2019-02-18T00:04:16.475Z,157.83
2019-02-18T00:06:43.211Z,135.37
2019-02-18T00:09:09.847Z,146.30
2019-02-18T00:11:36.997Z,164.47
2019-02-18T00:14:03.752Z,165.43
2019-02-18T00:16:30.442Z,146.17
2019-02-18T00:18:57.522Z,166.20
2019-02-18T00:21:24.262Z,169.33
2019-02-18T00:23:50.982Z,147.17
2019-02-18T00:26:18.058Z,151.63
2019-02-18T00:28:45.197Z,167.57
2019-02-18T00:31:11.937Z,175.27
2019-02-18T00:33:38.683Z,171.23
2019-02-18T00:36:05.533Z,161.20
2019-02-18T00:38:32.256Z,174.40
2019-02-18T00:40:58.892Z,150.57
2019-02-18T00:43:25.661Z,173.83
2019-02-18T00:45:52.472Z,145.93
2019-02-18T00:48:19.315Z,165.73
2019-02-18T00:50:46.157Z,154.20
2019-02-18T00:53:12.905Z,172.90
2019-02-18T00:55:39.635Z,154.07
2019-02-18T00:58:06.839Z,163.50
2019-02-18T01:00:33.738Z,162.97
2019-02-18T01:03:00.580Z,150.23
2019-02-18T01:05:27.322Z,173.13
2019-02-18T01:07:54.049Z,149.13
2019-02-18T01:10:20.796Z,172.80
2019-02-18T01:12:47.628Z,163.37
2019-02-18T01:15:14.439Z,169.03
2019-02-18T01:17:41.171Z,161.83
2019-02-18T01:20:07.951Z,169.90
2019-02-18T01:22:34.696Z,147.60
2019-02-18T01:25:01.535Z,187.20
2019-02-18T01:27:28.282Z,177.20
2019-02-18T01:29:55.011Z,186.23
2019-02-18T01:32:21.750Z,190.77
2019-02-18T01:34:48.602Z,152.37
2019-02-18T01:37:15.442Z,177.87
2019-02-18T01:39:42.170Z,134.47
2019-02-18T01:42:08.937Z,173.17
2019-02-18T01:44:35.649Z,167.07
2019-02-18T01:47:02.292Z,173.27
2019-02-18T01:49:29.129Z,149.40
2019-02-18T01:51:55.869Z,159.93
2019-02-18T01:54:22.571Z,175.30
2019-02-18T01:56:49.345Z,146.10
2019-02-18T01:59:16.086Z,160.03
2019-02-18T02:01:42.940Z,167.60
2019-02-18T02:04:09.780Z,141.57
2019-02-18T02:06:36.510Z,163.40
2019-02-18T02:09:03.248Z,163.10
2019-02-18T02:11:29.985Z,154.63
2019-02-18T02:13:56.729Z,170.83
2019-02-18T02:16:23.472Z,194.17
2019-02-18T02:18:50.213Z,179.40
2019-02-18T02:21:16.942Z,160.37
2019-02-18T02:23:43.581Z,147.37
2019-02-18T02:26:10.432Z,144.20
2019-02-18T02:28:37.159Z,151.43
2019-02-18T02:31:03.914Z,147.43
2019-02-18T02:33:30.756Z,148.27
2019-02-18T02:35:57.489Z,159.80
2019-02-18T02:38:24.327Z,149.60
2019-02-18T02:40:51.178Z,197.10
2019-02-18T02:43:17.904Z,135.57
2019-02-18T02:45:44.588Z,162.33
2019-02-18T02:48:11.286Z,158.30
2019-02-18T02:50:38.053Z,152.57
2019-02-18T02:53:04.907Z,156.90
2019-02-18T02:55:31.716Z,150.90
2019-02-18T02:57:58.557Z,143.90
2019-02-18T03:00:25.286Z,197.77
2019-02-18T03:02:52.053Z,165.97
2019-02-18T03:05:18.864Z,180.23
2019-02-18T03:07:45.619Z,163.97
2019-02-18T03:10:12.343Z,154.77
2019-02-18T03:12:39.092Z,170.37
2019-02-18T03:15:05.872Z,164.60
2019-02-18T03:17:32.671Z,162.57
2019-02-18T03:19:59.621Z,165.50
2019-02-18T03:22:26.369Z,161.47
2019-02-18T03:24:53.301Z,173.27
2019-02-18T03:27:20.141Z,167.57
2019-02-18T03:29:46.987Z,132.57
2019-02-18T03:32:13.743Z,164.43
2019-02-18T03:34:40.564Z,161.20
2019-02-18T03:37:07.514Z,144.17
2019-02-18T03:39:34.445Z,167.70
2019-02-18T03:42:01.148Z,140.53
2019-02-18T03:44:27.923Z,137.83
2019-02-18T03:46:54.663Z,153.67
2019-02-18T03:49:21.409Z,171.57
2019-02-18T03:51:48.552Z,165.77
2019-02-18T03:54:15.301Z,150.03
2019-02-18T03:56:42.192Z,164.40
2019-02-18T03:59:09.187Z,161.67
2019-02-18T04:01:35.883Z,179.20
2019-02-18T04:04:02.653Z,144.93
2019-02-18T04:06:29.290Z,164.57
2019-02-18T04:08:55.927Z,154.67
2019-02-18T04:11:22.677Z,160.07
2019-02-18T04:13:49.421Z,165.60
2019-02-18T04:16:16.335Z,143.37
2019-02-18T04:18:43.106Z,149.07
2019-02-18T04:21:09.831Z,153.97
2019-02-18T04:23:36.578Z,147.90
2019-02-18T04:26:03.317Z,158.93
2019-02-18T04:28:30.155Z,138.93
2019-02-18T04:30:56.901Z,147.77
2019-02-18T04:33:23.618Z,155.37
2019-02-18T04:35:50.387Z,132.87
2019-02-18T04:38:17.225Z,163.83
2019-02-18T04:40:44.051Z,153.37
2019-02-18T04:43:10.804Z,164.30
2019-02-18T04:45:37.502Z,156.37
2019-02-18T04:48:04.281Z,129.07
2019-02-18T04:50:31.018Z,142.77
2019-02-18T04:52:57.854Z,162.70
2019-02-18T04:55:24.601Z,146.03
2019-02-18T04:57:51.332Z,149.77
2019-02-18T05:00:18.078Z,165.13
2019-02-18T05:02:44.773Z,161.93
2019-02-18T05:05:11.663Z,146.33
2019-02-18T05:07:38.413Z,151.70
2019-02-18T05:10:05.128Z,139.33
2019-02-18T05:12:31.980Z,152.33
2019-02-18T05:14:58.679Z,135.97
2019-02-18T05:17:25.463Z,170.57
2019-02-18T05:19:52.353Z,150.07
2019-02-18T05:22:19.149Z,144.17
2019-02-18T05:24:45.902Z,133.50
2019-02-18T05:27:12.610Z,153.37
2019-02-18T05:29:39.565Z,145.47
2019-02-18T05:32:06.293Z,164.70
2019-02-18T05:34:33.056Z,136.90
2019-02-18T05:36:59.885Z,145.37
2019-02-18T05:39:26.623Z,148.70
2019-02-18T05:41:53.455Z,149.07
2019-02-18T05:44:20.206Z,150.20
2019-02-18T05:46:46.936Z,130.13
2019-02-18T05:49:13.882Z,165.57
2019-02-18T05:51:40.618Z,144.63
2019-02-18T05:54:07.509Z,136.47
2019-02-18T05:56:34.213Z,136.00
2019-02-18T05:59:01.054Z,139.43
2019-02-18T06:01:27.893Z,129.17
2019-02-18T06:03:54.594Z,151.57
2019-02-18T06:06:21.781Z,166.60
2019-02-18T06:08:48.622Z,137.20
2019-02-18T06:11:15.356Z,139.37
2019-02-18T06:13:42.238Z,170.33
2019-02-18T06:16:09.145Z,139.37
2019-02-18T06:18:35.979Z,139.87
2019-02-18T06:21:02.762Z,131.43
2019-02-18T06:23:29.562Z,143.20
2019-02-18T06:25:56.299Z,143.17
2019-02-18T06:28:23.036Z,143.07
2019-02-18T06:30:49.790Z,140.40
2019-02-18T06:33:16.618Z,131.43
2019-02-18T06:35:43.375Z,161.33
2019-02-18T06:38:10.099Z,147.40
2019-02-18T06:40:36.847Z,148.27
2019-02-18T06:43:03.679Z,145.83
2019-02-18T06:45:30.640Z,139.13
2019-02-18T06:47:57.474Z,156.43
2019-02-18T06:50:24.352Z,164.97
2019-02-18T06:52:51.261Z,145.17
2019-02-18T06:55:18.092Z,180.63
2019-02-18T06:57:44.837Z,158.00
2019-02-18T07:00:11.572Z,142.37
2019-02-18T07:02:38.307Z,150.20
2019-02-18T07:05:05.063Z,149.97
2019-02-18T07:07:31.892Z,148.80
2019-02-18T07:09:58.644Z,149.37
2019-02-18T07:12:25.374Z,153.77
2019-02-18T07:14:52.109Z,150.03
2019-02-18T07:17:18.848Z,150.37
2019-02-18T07:19:45.715Z,136.33
2019-02-18T07:22:12.440Z,141.53
2019-02-18T07:24:39.173Z,153.97
2019-02-18T07:27:05.916Z,150.87
2019-02-18T07:29:34.159Z,152.13
2019-02-18T07:32:01.011Z,156.50
2019-02-18T07:34:27.641Z,167.50
2019-02-18T07:36:54.399Z,161.90
2019-02-18T07:39:21.041Z,157.67
2019-02-18T07:41:47.774Z,163.27
2019-02-18T07:44:14.515Z,159.70
2019-02-18T07:46:41.266Z,155.60
2019-02-18T07:49:08.311Z,153.53
2019-02-18T07:51:35.021Z,189.20
2019-02-18T07:54:01.794Z,179.63
2019-02-18T07:56:28.634Z,151.20
2019-02-18T07:58:55.364Z,168.87
2019-02-18T08:01:22.100Z,156.20
2019-02-18T08:03:48.841Z,146.87
2019-02-18T08:06:15.699Z,136.63
2019-02-18T08:08:43.592Z,133.53
2019-02-18T08:11:10.903Z,148.80
2019-02-18T08:13:37.641Z,149.83
2019-02-18T08:16:04.487Z,149.77
2019-02-18T08:18:31.346Z,135.13
2019-02-18T08:20:58.173Z,139.80
2019-02-18T08:23:24.910Z,139.73
2019-02-18T08:25:51.648Z,167.17
2019-02-18T08:28:18.400Z,159.70
2019-02-18T08:30:45.122Z,138.33
2019-02-18T08:33:11.859Z,146.60
2019-02-18T08:35:38.614Z,150.17
2019-02-18T08:38:05.340Z,157.43
2019-02-18T08:40:32.088Z,151.50
2019-02-18T08:42:58.941Z,130.47
2019-02-18T08:45:25.778Z,137.57
2019-02-18T08:47:52.500Z,147.77
2019-02-18T08:50:19.350Z,145.07
2019-02-18T08:52:46.183Z,134.73
2019-02-18T08:55:13.288Z,131.83
2019-02-18T08:57:40.106Z,136.23
2019-02-18T09:00:06.858Z,120.97
2019-02-18T09:02:33.656Z,121.43
2019-02-18T09:05:00.734Z,111.83
2019-02-18T09:07:27.439Z,100.18
2019-02-18T09:09:54.190Z,96.50
2019-02-18T09:12:21.629Z,109.85
2019-02-18T09:14:48.382Z,91.10
2019-02-18T09:17:15.111Z,79.40
2019-02-18T09:19:41.866Z,88.20
2019-02-18T09:22:09.036Z,93.78
2019-02-18T09:24:35.749Z,101.58
2019-02-18T09:27:02.481Z,87.82
2019-02-18T09:29:29.228Z,100.85
2019-02-18T09:31:56.070Z,103.83
2019-02-18T09:34:22.965Z,114.88
2019-02-18T09:36:49.747Z,111.15
2019-02-18T09:39:16.485Z,103.60
2019-02-18T09:41:43.195Z,102.62
2019-02-18T09:44:09.868Z,101.75
2019-02-18T09:46:36.708Z,79.25
2019-02-18T09:49:03.548Z,90.45
2019-02-18T09:51:30.287Z,74.37
2019-02-18T09:53:57.024Z,73.50
2019-02-18T09:56:23.757Z,72.37
2019-02-18T09:58:50.603Z,62.73
2019-02-18T10:01:17.324Z,63.83
2019-02-18T10:03:44.092Z,58.25
2019-02-18T10:06:10.980Z,67.42
2019-02-18T10:08:37.769Z,53.28
2019-02-18T10:11:04.626Z,59.48
2019-02-18T10:13:31.342Z,69.82
2019-02-18T10:15:58.096Z,58.40
2019-02-18T10:18:24.933Z,71.07
2019-02-18T10:20:51.662Z,59.50
2019-02-18T10:23:18.719Z,70.97
2019-02-18T10:25:45.470Z,67.67
2019-02-18T10:28:12.177Z,56.80
2019-02-18T10:30:38.871Z,58.08
2019-02-18T10:33:05.568Z,51.50
2019-02-18T10:35:32.243Z,57.60
2019-02-18T10:37:58.939Z,44.53
2019-02-18T10:40:25.638Z,59.00
2019-02-18T10:42:52.361Z,47.27
2019-02-18T10:45:19.054Z,51.10
2019-02-18T10:47:45.807Z,48.40
2019-02-18T10:50:12.506Z,43.52
2019-02-18T10:52:39.233Z,41.50
2019-02-18T10:55:05.931Z,48.52
2019-02-18T10:57:33.162Z,48.00
2019-02-18T10:59:59.908Z,47.90
2019-02-18T11:02:26.604Z,44.23
2019-02-18T11:04:53.314Z,42.38
2019-02-18T11:07:20.044Z,41.98
2019-02-18T11:09:46.765Z,50.88
2019-02-18T11:12:13.506Z,46.08
2019-02-18T11:14:40.204Z,47.40
2019-02-18T11:17:06.912Z,47.90
2019-02-18T11:19:33.631Z,41.92
2019-02-18T11:22:00.324Z,48.33
2019-02-18T11:24:27.087Z,55.78
2019-02-18T11:26:54.010Z,48.33
2019-02-18T11:29:20.731Z,56.92
2019-02-18T11:31:47.423Z,43.28
2019-02-18T11:34:14.127Z,49.05
2019-02-18T11:36:40.885Z,47.80
2019-02-18T11:39:07.581Z,49.93
2019-02-18T11:41:34.303Z,50.10
2019-02-18T11:44:01.612Z,55.95
2019-02-18T11:46:28.379Z,52.60
2019-02-18T11:48:55.156Z,47.10
2019-02-18T11:51:21.856Z,44.70
2019-02-18T11:53:48.585Z,41.70
2019-02-18T11:56:15.326Z,41.70
2019-02-18T11:58:42.036Z,42.38
2019-02-18T12:01:09.099Z,41.95
2019-02-18T12:03:35.796Z,32.67
2019-02-18T12:06:02.526Z,35.05
2019-02-18T12:08:29.255Z,32.17
2019-02-18T12:10:55.975Z,30.05
2019-02-18T12:13:22.752Z,28.20
2019-02-18T12:15:49.477Z,33.78
2019-02-18T12:18:16.197Z,30.32
2019-02-18T12:20:43.355Z,31.07
2019-02-18T12:23:10.074Z,34.23
2019-02-18T12:25:36.976Z,26.23
2019-02-18T12:28:03.750Z,25.82
2019-02-18T12:30:32.547Z,23.62
2019-02-18T12:32:59.884Z,26.45
2019-02-18T12:35:31.003Z,25.95
2019-02-18T12:37:55.722Z,26.17
2019-02-18T12:40:22.565Z,28.38
2019-02-18T12:42:49.306Z,23.77
2019-02-18T12:45:16.036Z,28.42
2019-02-18T12:47:42.776Z,28.47
2019-02-18T12:50:09.674Z,31.95
2019-02-18T12:52:36.463Z,28.17
2019-02-18T12:55:03.414Z,24.95
2019-02-18T12:57:30.664Z,26.62
2019-02-18T12:59:58.671Z,25.45
2019-02-18T13:02:26.009Z,33.98
2019-02-18T13:04:52.900Z,38.42
2019-02-18T13:07:19.800Z,33.60
2019-02-18T13:09:46.631Z,28.57
2019-02-18T13:12:13.340Z,25.35
2019-02-18T13:14:40.182Z,23.12
2019-02-18T13:17:07.137Z,28.02
2019-02-18T13:19:33.871Z,42.03
2019-02-18T13:22:00.818Z,36.13
2019-02-18T13:24:27.651Z,44.42
2019-02-18T13:26:54.601Z,30.52
2019-02-18T13:29:21.344Z,43.20
2019-02-18T13:31:48.184Z,30.70
2019-02-18T13:34:14.921Z,27.05
2019-02-18T13:36:41.769Z,20.17
2019-02-18T13:39:08.607Z,22.52
2019-02-18T13:41:36.911Z,21.27
2019-02-18T13:44:03.918Z,24.55
2019-02-18T13:46:30.666Z,24.18
2019-02-18T13:48:57.516Z,21.97
2019-02-18T13:51:24.621Z,21.30
2019-02-18T13:53:51.498Z,21.85
2019-02-18T13:56:18.227Z,19.82
2019-02-18T13:58:45.289Z,16.95
2019-02-18T14:01:12.026Z,18.80
2019-02-18T14:03:38.861Z,15.68
2019-02-18T14:06:05.603Z,14.63
2019-02-18T14:08:32.342Z,16.25
2019-02-18T14:10:59.183Z,15.78
2019-02-18T14:13:25.921Z,13.13
2019-02-18T14:15:52.961Z,15.53
2019-02-18T14:18:20.322Z,16.17
2019-02-18T14:20:47.060Z,13.20
2019-02-18T14:23:15.844Z,17.67
2019-02-18T14:25:42.381Z,25.60
2019-02-18T14:28:09.328Z,22.62
2019-02-18T14:30:36.077Z,25.62
2019-02-18T14:33:02.829Z,25.82
2019-02-18T14:35:30.164Z,24.92
2019-02-18T14:37:56.902Z,26.23
2019-02-18T14:40:23.688Z,31.10
2019-02-18T14:42:50.472Z,35.95
2019-02-18T14:45:17.221Z,26.42
2019-02-18T14:47:43.966Z,27.37
2019-02-18T14:50:10.698Z,33.95
2019-02-18T14:52:37.532Z,35.33
2019-02-18T14:55:04.580Z,33.92
2019-02-18T14:57:31.276Z,36.45
2019-02-18T14:59:58.212Z,35.52
2019-02-18T15:02:25.012Z,36.90
2019-02-18T15:04:51.808Z,34.53
2019-02-18T15:07:18.591Z,35.50
2019-02-18T15:09:45.333Z,38.13
2019-02-18T15:12:12.060Z,40.55
2019-02-18T15:14:38.799Z,43.92
2019-02-18T15:17:05.645Z,42.62
2019-02-18T15:19:32.399Z,44.90
2019-02-18T15:21:59.124Z,35.60
2019-02-18T15:24:25.859Z,44.80
2019-02-18T15:26:52.606Z,46.07
2019-02-18T15:29:19.440Z,53.70
2019-02-18T15:31:46.494Z,40.90
2019-02-18T15:34:13.234Z,44.17
2019-02-18T15:36:39.967Z,46.03
2019-02-18T15:39:06.709Z,50.13
2019-02-18T15:41:33.545Z,40.57
2019-02-18T15:44:00.298Z,45.13
2019-02-18T15:46:27.023Z,40.13
2019-02-18T15:48:53.767Z,58.20
2019-02-18T15:51:20.922Z,52.87
2019-02-18T15:53:47.757Z,49.50
2019-02-18T15:56:14.505Z,60.47
2019-02-18T15:58:41.233Z,55.47
2019-02-18T16:01:08.087Z,41.70
2019-02-18T16:03:34.829Z,61.53
2019-02-18T16:06:01.656Z,46.17
2019-02-18T16:08:28.814Z,45.73
2019-02-18T16:10:55.573Z,52.17
2019-02-18T16:13:22.282Z,56.30
2019-02-18T16:15:49.019Z,63.20
2019-02-18T16:18:15.799Z,75.90
2019-02-18T16:20:42.616Z,65.10
2019-02-18T16:23:09.341Z,76.17
2019-02-18T16:25:36.071Z,68.60
2019-02-18T16:28:03.254Z,74.63
2019-02-18T16:30:30.080Z,54.63
2019-02-18T16:32:56.819Z,64.37
2019-02-18T16:35:23.555Z,64.10
2019-02-18T16:37:50.302Z,62.57
2019-02-18T16:40:17.134Z,149.90
2019-02-18T16:42:43.958Z,62.43
2019-02-18T16:45:10.806Z,69.57
2019-02-18T16:47:37.634Z,51.23
2019-02-18T16:50:04.476Z,67.20
2019-02-18T16:52:31.175Z,73.10
2019-02-18T16:54:58.060Z,55.27
2019-02-18T16:57:24.789Z,69.70
2019-02-18T16:59:51.527Z,106.17
2019-02-18T17:02:18.269Z,71.50
2019-02-18T17:04:45.418Z,56.63
2019-02-18T17:07:12.268Z,73.37
2019-02-18T17:09:39.013Z,71.10
2019-02-18T17:12:05.738Z,154.07
2019-02-18T17:14:32.591Z,64.27
2019-02-18T17:16:59.282Z,83.37
2019-02-18T17:19:26.068Z,81.27
2019-02-18T17:21:52.797Z,85.13
2019-02-18T17:24:19.849Z,89.67
2019-02-18T17:26:46.584Z,69.70
2019-02-18T17:29:13.534Z,67.70
2019-02-18T17:31:40.327Z,75.63
2019-02-18T17:34:07.106Z,69.73
2019-02-18T17:36:34.440Z,64.60
2019-02-18T17:39:01.759Z,89.77
2019-02-18T17:41:28.929Z,79.20
2019-02-18T17:43:55.810Z,71.63
2019-02-18T17:46:22.550Z,91.90
2019-02-18T17:48:49.292Z,66.57
2019-02-18T17:51:16.253Z,61.47
2019-02-18T17:53:43.347Z,69.23
2019-02-18T17:56:10.313Z,65.47
2019-02-18T17:58:37.160Z,68.07
2019-02-18T18:01:04.309Z,63.03
2019-02-18T18:03:31.050Z,68.90
2019-02-18T18:05:57.807Z,70.73
2019-02-18T18:08:24.640Z,78.57
2019-02-18T18:10:51.479Z,80.43
2019-02-18T18:13:24.922Z,67.00
2019-02-18T18:15:46.804Z,75.33
2019-02-18T18:18:13.652Z,72.30
2019-02-18T18:20:40.588Z,86.70
2019-02-18T18:23:07.439Z,93.57
2019-02-18T18:25:34.272Z,149.33
2019-02-18T18:28:01.034Z,87.70
2019-02-18T18:30:27.855Z,75.27
2019-02-18T18:32:54.684Z,77.03
2019-02-18T18:35:21.446Z,99.50
2019-02-18T18:37:48.479Z,166.47
2019-02-18T18:40:15.317Z,88.53
2019-02-18T18:42:42.059Z,100.27
2019-02-18T18:45:09.885Z,101.73
2019-02-18T18:47:36.673Z,101.20
2019-02-18T18:50:03.686Z,241.60
2019-02-18T18:52:30.445Z,122.13
2019-02-18T18:54:57.929Z,87.93
2019-02-18T18:57:25.226Z,107.40
2019-02-18T18:59:51.918Z,105.33
2019-02-18T19:02:18.646Z,105.47
2019-02-18T19:04:45.358Z,95.83
2019-02-18T19:07:12.138Z,112.53
2019-02-18T19:09:38.970Z,90.03
2019-02-18T19:12:05.707Z,125.17
2019-02-18T19:14:32.562Z,94.80
2019-02-18T19:16:59.402Z,115.60
2019-02-18T19:22:12.188Z,105.27
2019-02-18T19:24:39.063Z,96.87
2019-02-18T19:27:05.985Z,110.90
2019-02-18T19:29:32.729Z,98.97
2019-02-18T19:31:59.423Z,121.47
2019-02-18T19:34:26.227Z,107.90
2019-02-18T19:36:52.941Z,102.67
2019-02-18T19:39:19.720Z,103.70
2019-02-18T19:41:46.667Z,111.23
2019-02-18T19:44:13.738Z,116.27
2019-02-18T19:46:40.513Z,124.20
2019-02-18T19:49:07.268Z,116.83
2019-02-18T19:51:33.981Z,134.90
2019-02-18T19:54:00.688Z,118.77
2019-02-18T19:56:27.545Z,130.27
2019-02-18T19:58:54.349Z,112.23
2019-02-18T20:01:21.379Z,127.13
2019-02-18T20:03:48.116Z,103.57
2019-02-18T20:06:14.875Z,117.57
2019-02-18T20:08:41.725Z,124.63
2019-02-18T20:11:08.578Z,138.97
2019-02-18T20:13:35.410Z,131.73
2019-02-18T20:16:02.256Z,122.17
2019-02-18T20:18:29.093Z,141.87
2019-02-18T20:20:55.942Z,121.23
2019-02-18T20:23:22.787Z,139.27
2019-02-18T20:25:50.322Z,111.50
2019-02-18T20:28:19.082Z,134.30
2019-02-18T20:30:46.333Z,144.30
2019-02-18T20:33:13.516Z,132.70
2019-02-18T20:35:43.143Z,133.63
2019-02-18T20:38:10.334Z,132.43
2019-02-18T20:40:39.673Z,138.67
2019-02-18T20:43:09.261Z,151.87
2019-02-18T20:45:38.109Z,129.43
2019-02-18T20:48:05.456Z,144.77
2019-02-18T20:50:34.654Z,139.00
2019-02-18T20:53:01.710Z,134.37
2019-02-18T20:55:29.655Z,148.33
2019-02-18T20:57:58.972Z,145.70
2019-02-18T21:00:27.412Z,163.37
2019-02-18T21:02:55.547Z,162.80
2019-02-18T21:05:24.121Z,168.67
2019-02-18T21:07:52.369Z,152.10
2019-02-18T21:10:20.962Z,162.30
2019-02-18T21:12:49.673Z,160.10
2019-02-18T21:15:17.608Z,152.47
2019-02-18T21:17:45.657Z,161.53
2019-02-18T21:20:14.546Z,170.03
2019-02-18T21:22:41.504Z,137.70
2019-02-18T21:25:11.340Z,172.13
2019-02-18T21:27:38.470Z,145.60
2019-02-18T21:30:06.132Z,162.73
2019-02-18T21:32:34.410Z,180.40
2019-02-18T21:35:03.344Z,210.70
2019-02-18T21:37:31.066Z,227.53
2019-02-18T21:39:59.263Z,183.93
2019-02-18T21:42:27.824Z,194.47
2019-02-18T21:44:55.438Z,194.53
2019-02-18T21:47:23.582Z,163.27
2019-02-18T21:49:52.643Z,180.20
2019-02-18T21:52:21.207Z,188.10
2019-02-18T21:54:49.985Z,180.73
2019-02-18T21:57:18.389Z,171.63
2019-02-18T21:59:47.421Z,177.10
2019-02-18T22:02:16.064Z,204.73
2019-02-18T22:04:44.653Z,178.20
2019-02-18T22:07:11.718Z,185.27
2019-02-18T22:09:38.456Z,190.07
2019-02-18T22:12:05.249Z,196.63
2019-02-18T22:14:33.804Z,186.17
2019-02-18T22:17:00.450Z,193.53
2019-02-18T22:19:27.190Z,198.10
2019-02-18T22:21:53.935Z,184.70
2019-02-18T22:24:20.787Z,186.60
2019-02-18T22:26:48.033Z,209.13
2019-02-18T22:29:14.718Z,205.07
2019-02-18T22:31:41.463Z,198.03
2019-02-18T22:34:08.360Z,204.33
2019-02-18T22:36:35.197Z,187.40
2019-02-18T22:39:02.041Z,186.93
2019-02-18T22:41:28.768Z,190.23
2019-02-18T22:43:55.512Z,195.87
2019-02-18T22:46:22.362Z,197.33
2019-02-18T22:48:49.406Z,194.20
2019-02-18T22:51:16.183Z,191.23
2019-02-18T22:53:42.993Z,176.27
2019-02-18T22:56:09.686Z,197.57
2019-02-18T22:58:36.402Z,207.23
2019-02-18T23:01:03.144Z,177.17
2019-02-18T23:03:29.908Z,219.77
2019-02-18T23:05:56.939Z,202.43
2019-02-18T23:08:23.668Z,201.07
2019-02-18T23:10:50.468Z,184.57
2019-02-18T23:13:17.394Z,197.20
2019-02-18T23:15:45.585Z,181.00
2019-02-18T23:18:12.413Z,204.03
2019-02-18T23:20:39.095Z,205.37
2019-02-18T23:23:05.813Z,200.10
2019-02-18T23:25:32.547Z,200.50
2019-02-18T23:27:59.375Z,185.93
2019-02-18T23:30:26.120Z,189.77
2019-02-18T23:32:53.028Z,199.23
2019-02-18T23:35:19.797Z,165.63
2019-02-18T23:37:46.646Z,205.40
2019-02-18T23:40:13.523Z,192.50
2019-02-18T23:42:40.433Z,200.53
2019-02-18T23:45:07.215Z,192.23
2019-02-18T23:47:34.042Z,241.23
2019-02-18T23:50:00.853Z,180.50
2019-02-18T23:52:27.708Z,199.63
2019-02-18T23:54:54.643Z,198.93
2019-02-18T23:57:21.334Z,212.87
2019-02-18T23:59:49.530Z,208.47
